sensor_id;sensor_type;location;lat;lon;timestamp;pressure;altitude;pressure_sealevel;temperature
69415;BMP280;56608;43.530;-5.652;2022-10-31T00:00:00;101253.00;;;16.12
69415;BMP280;56608;43.530;-5.652;2022-10-31T00:01:16;101251.53;;;16.26
69415;BMP280;56608;43.530;-5.652;2022-10-31T00:02:17;101252.16;;;16.30
69415;BMP280;56608;43.530;-5.652;2022-10-31T00:03:19;101253.53;;;16.25
69415;BMP280;56608;43.530;-5.652;2022-10-31T00:04:20;101240.44;;;16.24
69415;BMP280;56608;43.530;-5.652;2022-10-31T00:05:21;101250.53;;;16.23
69415;BMP280;56608;43.530;-5.652;2022-10-31T00:06:25;101246.06;;;16.11
69415;BMP280;56608;43.530;-5.652;2022-10-31T00:07:27;101240.78;;;16.08
69415;BMP280;56608;43.530;-5.652;2022-10-31T00:08:28;101239.75;;;16.05
69415;BMP280;56608;43.530;-5.652;2022-10-31T00:09:29;101240.50;;;16.05
69415;BMP280;56608;43.530;-5.652;2022-10-31T00:10:30;101231.75;;;16.11
69415;BMP280;56608;43.530;-5.652;2022-10-31T00:11:32;101235.38;;;16.08
69415;BMP280;56608;43.530;-5.652;2022-10-31T00:12:33;101229.66;;;16.15
69415;BMP280;56608;43.530;-5.652;2022-10-31T00:13:35;101224.16;;;16.24
69415;BMP280;56608;43.530;-5.652;2022-10-31T00:14:36;101229.84;;;16.26
69415;BMP280;56608;43.530;-5.652;2022-10-31T00:15:39;101221.44;;;16.24
69415;BMP280;56608;43.530;-5.652;2022-10-31T00:16:40;101226.53;;;16.31
69415;BMP280;56608;43.530;-5.652;2022-10-31T00:17:44;101231.34;;;16.27
69415;BMP280;56608;43.530;-5.652;2022-10-31T00:18:49;101221.84;;;16.31
69415;BMP280;56608;43.530;-5.652;2022-10-31T00:19:51;101215.97;;;16.33
69415;BMP280;56608;43.530;-5.652;2022-10-31T00:21:03;101208.34;;;16.22
69415;BMP280;56608;43.530;-5.652;2022-10-31T00:22:05;101212.44;;;16.18
69415;BMP280;56608;43.530;-5.652;2022-10-31T00:23:07;101217.13;;;16.17
69415;BMP280;56608;43.530;-5.652;2022-10-31T00:24:10;101204.00;;;16.16
69415;BMP280;56608;43.530;-5.652;2022-10-31T00:25:11;101204.13;;;16.21
69415;BMP280;56608;43.530;-5.652;2022-10-31T00:26:12;101198.25;;;16.23
69415;BMP280;56608;43.530;-5.652;2022-10-31T00:27:16;101199.13;;;16.29
69415;BMP280;56608;43.530;-5.652;2022-10-31T00:28:17;101200.91;;;16.32
69415;BMP280;56608;43.530;-5.652;2022-10-31T00:29:18;101196.06;;;16.36
69415;BMP280;56608;43.530;-5.652;2022-10-31T00:30:20;101192.31;;;16.33
69415;BMP280;56608;43.530;-5.652;2022-10-31T00:31:20;101193.66;;;16.38
69415;BMP280;56608;43.530;-5.652;2022-10-31T00:32:24;101193.66;;;16.38
69415;BMP280;56608;43.530;-5.652;2022-10-31T00:33:26;101192.44;;;16.39
69415;BMP280;56608;43.530;-5.652;2022-10-31T00:34:28;101186.44;;;16.35
69415;BMP280;56608;43.530;-5.652;2022-10-31T00:35:29;101183.50;;;16.24
69415;BMP280;56608;43.530;-5.652;2022-10-31T00:36:31;101186.78;;;16.28
69415;BMP280;56608;43.530;-5.652;2022-10-31T00:37:32;101184.06;;;16.28
69415;BMP280;56608;43.530;-5.652;2022-10-31T00:38:34;101185.16;;;16.21
69415;BMP280;56608;43.530;-5.652;2022-10-31T00:39:37;101188.81;;;16.18
69415;BMP280;56608;43.530;-5.652;2022-10-31T00:40:38;101182.97;;;16.11
69415;BMP280;56608;43.530;-5.652;2022-10-31T00:41:40;101180.97;;;16.20
69415;BMP280;56608;43.530;-5.652;2022-10-31T00:42:41;101178.72;;;16.19
69415;BMP280;56608;43.530;-5.652;2022-10-31T00:43:43;101184.12;;;16.19
69415;BMP280;56608;43.530;-5.652;2022-10-31T00:44:43;101183.94;;;16.22
69415;BMP280;56608;43.530;-5.652;2022-10-31T00:45:47;101184.88;;;16.19
69415;BMP280;56608;43.530;-5.652;2022-10-31T00:46:47;101179.53;;;16.01
69415;BMP280;56608;43.530;-5.652;2022-10-31T00:47:50;101181.25;;;15.89
69415;BMP280;56608;43.530;-5.652;2022-10-31T00:48:51;101178.28;;;15.87
69415;BMP280;56608;43.530;-5.652;2022-10-31T00:49:53;101178.22;;;15.96
69415;BMP280;56608;43.530;-5.652;2022-10-31T00:50:56;101177.28;;;15.99
69415;BMP280;56608;43.530;-5.652;2022-10-31T00:51:58;101178.28;;;15.78
69415;BMP280;56608;43.530;-5.652;2022-10-31T00:53:02;101173.22;;;15.71
69415;BMP280;56608;43.530;-5.652;2022-10-31T00:54:03;101170.50;;;15.71
69415;BMP280;56608;43.530;-5.652;2022-10-31T00:55:05;101169.31;;;15.63
69415;BMP280;56608;43.530;-5.652;2022-10-31T00:56:06;101167.38;;;15.54
69415;BMP280;56608;43.530;-5.652;2022-10-31T00:57:08;101165.16;;;15.44
69415;BMP280;56608;43.530;-5.652;2022-10-31T00:58:09;101170.72;;;15.49
69415;BMP280;56608;43.530;-5.652;2022-10-31T00:59:10;101164.56;;;15.49
69415;BMP280;56608;43.530;-5.652;2022-10-31T01:00:14;101170.28;;;15.42
69415;BMP280;56608;43.530;-5.652;2022-10-31T01:01:16;101171.38;;;15.26
69415;BMP280;56608;43.530;-5.652;2022-10-31T01:02:17;101162.22;;;15.14
69415;BMP280;56608;43.530;-5.652;2022-10-31T01:03:19;101166.25;;;15.19
69415;BMP280;56608;43.530;-5.652;2022-10-31T01:04:20;101158.72;;;15.23
69415;BMP280;56608;43.530;-5.652;2022-10-31T01:05:23;101157.34;;;15.27
69415;BMP280;56608;43.530;-5.652;2022-10-31T01:06:26;101157.66;;;15.39
69415;BMP280;56608;43.530;-5.652;2022-10-31T01:07:27;101150.72;;;15.47
69415;BMP280;56608;43.530;-5.652;2022-10-31T01:08:31;101151.47;;;15.47
69415;BMP280;56608;43.530;-5.652;2022-10-31T01:09:32;101154.94;;;15.39
69415;BMP280;56608;43.530;-5.652;2022-10-31T01:10:34;101151.34;;;15.42
69415;BMP280;56608;43.530;-5.652;2022-10-31T01:11:35;101149.50;;;15.48
69415;BMP280;56608;43.530;-5.652;2022-10-31T01:12:38;101140.62;;;15.47
69415;BMP280;56608;43.530;-5.652;2022-10-31T01:13:40;101141.53;;;15.44
69415;BMP280;56608;43.530;-5.652;2022-10-31T01:14:43;101133.88;;;15.43
69415;BMP280;56608;43.530;-5.652;2022-10-31T01:15:53;101129.97;;;15.44
69415;BMP280;56608;43.530;-5.652;2022-10-31T01:16:55;101130.56;;;15.48
69415;BMP280;56608;43.530;-5.652;2022-10-31T01:17:56;101128.13;;;15.50
69415;BMP280;56608;43.530;-5.652;2022-10-31T01:18:58;101130.94;;;15.55
69415;BMP280;56608;43.530;-5.652;2022-10-31T01:19:59;101130.78;;;15.68
69415;BMP280;56608;43.530;-5.652;2022-10-31T01:21:07;101134.66;;;15.76
69415;BMP280;56608;43.530;-5.652;2022-10-31T01:22:08;101126.66;;;15.82
69415;BMP280;56608;43.530;-5.652;2022-10-31T01:23:12;101132.97;;;15.88
69415;BMP280;56608;43.530;-5.652;2022-10-31T01:24:13;101130.97;;;15.88
69415;BMP280;56608;43.530;-5.652;2022-10-31T01:25:14;101124.84;;;15.88
69415;BMP280;56608;43.530;-5.652;2022-10-31T01:26:20;101122.88;;;15.79
69415;BMP280;56608;43.530;-5.652;2022-10-31T01:27:21;101121.37;;;15.78
69415;BMP280;56608;43.530;-5.652;2022-10-31T01:28:25;101126.34;;;15.80
69415;BMP280;56608;43.530;-5.652;2022-10-31T01:29:28;101116.72;;;15.88
69415;BMP280;56608;43.530;-5.652;2022-10-31T01:30:30;101120.16;;;15.88
69415;BMP280;56608;43.530;-5.652;2022-10-31T01:31:34;101124.09;;;15.87
69415;BMP280;56608;43.530;-5.652;2022-10-31T01:32:35;101114.91;;;15.85
69415;BMP280;56608;43.530;-5.652;2022-10-31T01:33:37;101113.00;;;15.76
69415;BMP280;56608;43.530;-5.652;2022-10-31T01:34:37;101115.09;;;15.72
69415;BMP280;56608;43.530;-5.652;2022-10-31T01:35:41;101120.69;;;15.69
69415;BMP280;56608;43.530;-5.652;2022-10-31T01:36:44;101116.47;;;15.68
69415;BMP280;56608;43.530;-5.652;2022-10-31T01:37:47;101119.50;;;15.70
69415;BMP280;56608;43.530;-5.652;2022-10-31T01:38:50;101124.44;;;15.71
69415;BMP280;56608;43.530;-5.652;2022-10-31T01:39:51;101122.19;;;15.70
69415;BMP280;56608;43.530;-5.652;2022-10-31T01:40:55;101112.91;;;15.61
69415;BMP280;56608;43.530;-5.652;2022-10-31T01:41:56;101112.47;;;15.54
69415;BMP280;56608;43.530;-5.652;2022-10-31T01:42:58;101108.00;;;15.42
69415;BMP280;56608;43.530;-5.652;2022-10-31T01:45:25;101108.47;;;15.40
69415;BMP280;56608;43.530;-5.652;2022-10-31T01:46:41;101102.91;;;15.35
69415;BMP280;56608;43.530;-5.652;2022-10-31T01:47:46;101108.78;;;15.33
69415;BMP280;56608;43.530;-5.652;2022-10-31T01:48:48;101105.00;;;15.40
69415;BMP280;56608;43.530;-5.652;2022-10-31T01:49:50;101112.81;;;15.47
69415;BMP280;56608;43.530;-5.652;2022-10-31T01:50:54;101099.56;;;15.49
69415;BMP280;56608;43.530;-5.652;2022-10-31T01:52:03;101109.28;;;15.55
69415;BMP280;56608;43.530;-5.652;2022-10-31T01:53:06;101112.63;;;15.50
69415;BMP280;56608;43.530;-5.652;2022-10-31T01:54:12;101109.41;;;15.37
69415;BMP280;56608;43.530;-5.652;2022-10-31T01:55:26;101102.75;;;15.29
69415;BMP280;56608;43.530;-5.652;2022-10-31T01:56:30;101107.03;;;15.21
69415;BMP280;56608;43.530;-5.652;2022-10-31T01:57:34;101097.53;;;15.25
69415;BMP280;56608;43.530;-5.652;2022-10-31T01:58:38;101094.56;;;15.14
69415;BMP280;56608;43.530;-5.652;2022-10-31T01:59:43;101099.94;;;15.23
69415;BMP280;56608;43.530;-5.652;2022-10-31T02:00:50;101100.97;;;15.35
69415;BMP280;56608;43.530;-5.652;2022-10-31T02:01:53;101107.72;;;15.40
69415;BMP280;56608;43.530;-5.652;2022-10-31T02:02:55;101099.88;;;15.42
69415;BMP280;56608;43.530;-5.652;2022-10-31T02:03:57;101092.78;;;15.44
69415;BMP280;56608;43.530;-5.652;2022-10-31T02:05:00;101091.94;;;15.38
69415;BMP280;56608;43.530;-5.652;2022-10-31T02:06:03;101083.69;;;15.23
69415;BMP280;56608;43.530;-5.652;2022-10-31T02:07:11;101080.09;;;15.17
69415;BMP280;56608;43.530;-5.652;2022-10-31T02:08:29;101075.69;;;15.29
69415;BMP280;56608;43.530;-5.652;2022-10-31T02:09:33;101082.78;;;15.27
69415;BMP280;56608;43.530;-5.652;2022-10-31T02:10:36;101081.66;;;15.09
69415;BMP280;56608;43.530;-5.652;2022-10-31T02:11:39;101081.66;;;15.09
69415;BMP280;56608;43.530;-5.652;2022-10-31T02:12:43;101080.31;;;14.96
69415;BMP280;56608;43.530;-5.652;2022-10-31T02:13:47;101084.22;;;14.95
69415;BMP280;56608;43.530;-5.652;2022-10-31T02:14:49;101088.28;;;14.90
69415;BMP280;56608;43.530;-5.652;2022-10-31T02:15:53;101091.31;;;14.83
69415;BMP280;56608;43.530;-5.652;2022-10-31T02:16:54;101088.59;;;14.83
69415;BMP280;56608;43.530;-5.652;2022-10-31T02:17:56;101081.22;;;14.83
69415;BMP280;56608;43.530;-5.652;2022-10-31T02:18:58;101073.69;;;14.87
69415;BMP280;56608;43.530;-5.652;2022-10-31T02:21:22;101067.22;;;14.94
69415;BMP280;56608;43.530;-5.652;2022-10-31T02:23:06;101059.16;;;14.85
69415;BMP280;56608;43.530;-5.652;2022-10-31T02:24:37;101055.81;;;14.90
69415;BMP280;56608;43.530;-5.652;2022-10-31T02:32:40;101035.78;;;15.06
69415;BMP280;56608;43.530;-5.652;2022-10-31T02:33:56;101034.16;;;15.08
69415;BMP280;56608;43.530;-5.652;2022-10-31T02:37:26;101031.88;;;15.07
69415;BMP280;56608;43.530;-5.652;2022-10-31T02:40:22;101015.47;;;15.10
69415;BMP280;56608;43.530;-5.652;2022-10-31T02:42:01;101007.09;;;15.08
69415;BMP280;56608;43.530;-5.652;2022-10-31T02:44:14;101014.59;;;15.04
69415;BMP280;56608;43.530;-5.652;2022-10-31T02:45:34;101015.69;;;14.98
69415;BMP280;56608;43.530;-5.652;2022-10-31T02:47:34;101003.63;;;14.99
69415;BMP280;56608;43.530;-5.652;2022-10-31T02:48:39;101000.47;;;15.00
69415;BMP280;56608;43.530;-5.652;2022-10-31T02:50:52;100995.94;;;15.06
69415;BMP280;56608;43.530;-5.652;2022-10-31T02:51:55;100989.50;;;15.04
69415;BMP280;56608;43.530;-5.652;2022-10-31T02:52:56;100995.06;;;15.00
69415;BMP280;56608;43.530;-5.652;2022-10-31T02:53:58;100993.91;;;14.92
69415;BMP280;56608;43.530;-5.652;2022-10-31T02:55:09;100982.72;;;14.99
69415;BMP280;56608;43.530;-5.652;2022-10-31T02:56:13;100985.91;;;15.07
69415;BMP280;56608;43.530;-5.652;2022-10-31T02:57:18;100970.44;;;14.98
69415;BMP280;56608;43.530;-5.652;2022-10-31T02:58:24;100978.56;;;14.89
69415;BMP280;56608;43.530;-5.652;2022-10-31T02:59:28;100982.59;;;14.94
69415;BMP280;56608;43.530;-5.652;2022-10-31T03:00:39;100982.78;;;14.90
69415;BMP280;56608;43.530;-5.652;2022-10-31T03:03:19;100966.09;;;14.92
69415;BMP280;56608;43.530;-5.652;2022-10-31T03:04:29;100965.91;;;15.04
69415;BMP280;56608;43.530;-5.652;2022-10-31T03:05:51;100966.78;;;15.10
69415;BMP280;56608;43.530;-5.652;2022-10-31T03:07:42;100964.81;;;15.11
69415;BMP280;56608;43.530;-5.652;2022-10-31T03:11:03;100936.75;;;15.08
69415;BMP280;56608;43.530;-5.652;2022-10-31T03:13:46;100939.09;;;15.15
69415;BMP280;56608;43.530;-5.652;2022-10-31T03:16:16;100927.53;;;15.15
69415;BMP280;56608;43.530;-5.652;2022-10-31T03:17:59;100924.66;;;15.18
69415;BMP280;56608;43.530;-5.652;2022-10-31T03:19:02;100927.34;;;15.18
69415;BMP280;56608;43.530;-5.652;2022-10-31T03:20:09;100924.06;;;15.14
69415;BMP280;56608;43.530;-5.652;2022-10-31T03:21:18;100925.66;;;14.97
69415;BMP280;56608;43.530;-5.652;2022-10-31T03:22:24;100918.78;;;14.87
69415;BMP280;56608;43.530;-5.652;2022-10-31T03:23:28;100909.00;;;14.90
69415;BMP280;56608;43.530;-5.652;2022-10-31T03:24:37;100908.56;;;14.91
69415;BMP280;56608;43.530;-5.652;2022-10-31T03:25:39;100909.44;;;14.88
69415;BMP280;56608;43.530;-5.652;2022-10-31T03:26:46;100907.97;;;14.87
69415;BMP280;56608;43.530;-5.652;2022-10-31T03:27:49;100907.41;;;14.74
69415;BMP280;56608;43.530;-5.652;2022-10-31T03:28:56;100907.09;;;14.81
69415;BMP280;56608;43.530;-5.652;2022-10-31T03:30:02;100895.94;;;14.88
69415;BMP280;56608;43.530;-5.652;2022-10-31T03:31:04;100892.59;;;14.93
69415;BMP280;56608;43.530;-5.652;2022-10-31T03:32:19;100888.69;;;14.94
69415;BMP280;56608;43.530;-5.652;2022-10-31T03:33:26;100892.25;;;15.00
69415;BMP280;56608;43.530;-5.652;2022-10-31T03:34:30;100890.00;;;14.99
69415;BMP280;56608;43.530;-5.652;2022-10-31T03:35:35;100887.28;;;14.99
69415;BMP280;56608;43.530;-5.652;2022-10-31T03:36:39;100887.66;;;14.92
69415;BMP280;56608;43.530;-5.652;2022-10-31T03:37:41;100892.59;;;14.93
69415;BMP280;56608;43.530;-5.652;2022-10-31T03:38:45;100893.19;;;14.97
69415;BMP280;56608;43.530;-5.652;2022-10-31T03:39:48;100898.25;;;15.04
69415;BMP280;56608;43.530;-5.652;2022-10-31T03:40:51;100905.66;;;14.95
69415;BMP280;56608;43.530;-5.652;2022-10-31T03:42:05;100900.12;;;14.89
69415;BMP280;56608;43.530;-5.652;2022-10-31T03:43:10;100911.25;;;14.91
69415;BMP280;56608;43.530;-5.652;2022-10-31T03:44:17;100908.44;;;14.85
69415;BMP280;56608;43.530;-5.652;2022-10-31T03:45:24;100912.50;;;14.81
69415;BMP280;56608;43.530;-5.652;2022-10-31T03:46:27;100908.91;;;14.75
69415;BMP280;56608;43.530;-5.652;2022-10-31T03:47:28;100901.69;;;14.72
69415;BMP280;56608;43.530;-5.652;2022-10-31T03:48:30;100899.62;;;14.67
69415;BMP280;56608;43.530;-5.652;2022-10-31T03:49:32;100894.50;;;14.69
69415;BMP280;56608;43.530;-5.652;2022-10-31T03:50:44;100890.87;;;14.81
69415;BMP280;56608;43.530;-5.652;2022-10-31T03:51:58;100891.13;;;14.92
69415;BMP280;56608;43.530;-5.652;2022-10-31T03:54:44;100880.56;;;14.94
69415;BMP280;56608;43.530;-5.652;2022-10-31T03:55:50;100878.78;;;14.91
69415;BMP280;56608;43.530;-5.652;2022-10-31T03:58:24;100872.41;;;15.03
69415;BMP280;56608;43.530;-5.652;2022-10-31T03:59:33;100877.66;;;15.07
69415;BMP280;56608;43.530;-5.652;2022-10-31T04:00:40;100880.03;;;15.14
69415;BMP280;56608;43.530;-5.652;2022-10-31T04:01:48;100877.13;;;15.17
69415;BMP280;56608;43.530;-5.652;2022-10-31T04:03:03;100882.09;;;15.19
69415;BMP280;56608;43.530;-5.652;2022-10-31T04:04:06;100884.34;;;15.20
69415;BMP280;56608;43.530;-5.652;2022-10-31T04:05:10;100889.16;;;15.16
69415;BMP280;56608;43.530;-5.652;2022-10-31T04:06:14;100893.44;;;15.08
69415;BMP280;56608;43.530;-5.652;2022-10-31T04:07:19;100897.22;;;15.02
69415;BMP280;56608;43.530;-5.652;2022-10-31T04:08:25;100897.87;;;14.87
69415;BMP280;56608;43.530;-5.652;2022-10-31T04:09:29;100899.62;;;15.00
69415;BMP280;56608;43.530;-5.652;2022-10-31T04:10:33;100894.09;;;14.94
69415;BMP280;56608;43.530;-5.652;2022-10-31T04:11:42;100900.88;;;14.90
69415;BMP280;56608;43.530;-5.652;2022-10-31T04:12:51;100899.13;;;14.87
69415;BMP280;56608;43.530;-5.652;2022-10-31T04:13:54;100898.63;;;14.88
69415;BMP280;56608;43.530;-5.652;2022-10-31T04:14:58;100898.34;;;14.86
69415;BMP280;56608;43.530;-5.652;2022-10-31T04:16:00;100900.59;;;14.87
69415;BMP280;56608;43.530;-5.652;2022-10-31T04:17:02;100904.97;;;14.85
69415;BMP280;56608;43.530;-5.652;2022-10-31T04:18:07;100900.44;;;14.91
69415;BMP280;56608;43.530;-5.652;2022-10-31T04:19:08;100900.09;;;14.98
69415;BMP280;56608;43.530;-5.652;2022-10-31T04:20:10;100894.69;;;14.98
69415;BMP280;56608;43.530;-5.652;2022-10-31T04:21:14;100905.03;;;15.00
69415;BMP280;56608;43.530;-5.652;2022-10-31T04:22:15;100906.12;;;14.93
69415;BMP280;56608;43.530;-5.652;2022-10-31T04:23:21;100906.12;;;14.93
69415;BMP280;56608;43.530;-5.652;2022-10-31T04:24:23;100895.59;;;14.95
69415;BMP280;56608;43.530;-5.652;2022-10-31T04:25:25;100889.84;;;15.02
69415;BMP280;56608;43.530;-5.652;2022-10-31T04:26:26;100894.94;;;15.09
69415;BMP280;56608;43.530;-5.652;2022-10-31T04:27:27;100886.00;;;15.18
69415;BMP280;56608;43.530;-5.652;2022-10-31T04:28:29;100881.34;;;15.18
69415;BMP280;56608;43.530;-5.652;2022-10-31T04:29:32;100883.59;;;15.20
69415;BMP280;56608;43.530;-5.652;2022-10-31T04:30:34;100879.50;;;15.24
69415;BMP280;56608;43.530;-5.652;2022-10-31T04:31:35;100884.13;;;15.33
69415;BMP280;56608;43.530;-5.652;2022-10-31T04:32:37;100879.75;;;15.36
69415;BMP280;56608;43.530;-5.652;2022-10-31T04:33:38;100872.66;;;15.38
69415;BMP280;56608;43.530;-5.652;2022-10-31T04:34:39;100880.69;;;15.33
69415;BMP280;56608;43.530;-5.652;2022-10-31T04:35:43;100880.34;;;15.31
69415;BMP280;56608;43.530;-5.652;2022-10-31T04:36:47;100883.81;;;15.31
69415;BMP280;56608;43.530;-5.652;2022-10-31T04:37:48;100885.03;;;15.30
69415;BMP280;56608;43.530;-5.652;2022-10-31T04:38:48;100882.16;;;15.34
69415;BMP280;56608;43.530;-5.652;2022-10-31T04:39:50;100891.31;;;15.36
69415;BMP280;56608;43.530;-5.652;2022-10-31T04:40:54;100883.06;;;15.31
69415;BMP280;56608;43.530;-5.652;2022-10-31T04:41:55;100879.78;;;15.27
69415;BMP280;56608;43.530;-5.652;2022-10-31T04:42:56;100876.34;;;15.26
69415;BMP280;56608;43.530;-5.652;2022-10-31T04:43:58;100866.25;;;15.27
69415;BMP280;56608;43.530;-5.652;2022-10-31T04:44:59;100862.62;;;15.30
69415;BMP280;56608;43.530;-5.652;2022-10-31T04:46:02;100867.75;;;15.27
69415;BMP280;56608;43.530;-5.652;2022-10-31T04:47:04;100868.63;;;15.34
69415;BMP280;56608;43.530;-5.652;2022-10-31T04:48:05;100865.91;;;15.34
69415;BMP280;56608;43.530;-5.652;2022-10-31T04:49:06;100862.62;;;15.30
69415;BMP280;56608;43.530;-5.652;2022-10-31T04:50:08;100858.78;;;15.21
69415;BMP280;56608;43.530;-5.652;2022-10-31T04:51:09;100846.50;;;15.11
69415;BMP280;56608;43.530;-5.652;2022-10-31T04:52:11;100858.38;;;15.14
69415;BMP280;56608;43.530;-5.652;2022-10-31T04:53:12;100864.19;;;15.21
69415;BMP280;56608;43.530;-5.652;2022-10-31T04:54:16;100853.38;;;15.21
69415;BMP280;56608;43.530;-5.652;2022-10-31T04:55:17;100843.56;;;15.24
69415;BMP280;56608;43.530;-5.652;2022-10-31T04:56:18;100847.88;;;15.31
69415;BMP280;56608;43.530;-5.652;2022-10-31T04:57:20;100850.19;;;15.23
69415;BMP280;56608;43.530;-5.652;2022-10-31T04:58:23;100837.13;;;15.21
69415;BMP280;56608;43.530;-5.652;2022-10-31T04:59:27;100836.50;;;15.27
69415;BMP280;56608;43.530;-5.652;2022-10-31T05:00:28;100825.56;;;15.21
69415;BMP280;56608;43.530;-5.652;2022-10-31T05:01:29;100825.56;;;15.21
69415;BMP280;56608;43.530;-5.652;2022-10-31T05:02:30;100831.72;;;15.21
69415;BMP280;56608;43.530;-5.652;2022-10-31T05:03:32;100823.87;;;15.23
69415;BMP280;56608;43.530;-5.652;2022-10-31T05:04:33;100828.38;;;15.27
69415;BMP280;56608;43.530;-5.652;2022-10-31T05:05:34;100824.63;;;15.24
69415;BMP280;56608;43.530;-5.652;2022-10-31T05:06:36;100830.50;;;15.22
69415;BMP280;56608;43.530;-5.652;2022-10-31T05:07:45;100818.47;;;15.23
69415;BMP280;56608;43.530;-5.652;2022-10-31T05:08:47;100810.59;;;15.11
69415;BMP280;56608;43.530;-5.652;2022-10-31T05:09:49;100806.78;;;15.17
69415;BMP280;56608;43.530;-5.652;2022-10-31T05:10:52;100815.50;;;15.21
69415;BMP280;56608;43.530;-5.652;2022-10-31T05:11:53;100817.16;;;15.19
69415;BMP280;56608;43.530;-5.652;2022-10-31T05:12:57;100814.16;;;15.17
69415;BMP280;56608;43.530;-5.652;2022-10-31T05:14:00;100806.44;;;15.24
69415;BMP280;56608;43.530;-5.652;2022-10-31T05:15:02;100801.12;;;15.30
69415;BMP280;56608;43.530;-5.652;2022-10-31T05:16:04;100802.97;;;15.24
69415;BMP280;56608;43.530;-5.652;2022-10-31T05:17:04;100799.50;;;15.23
69415;BMP280;56608;43.530;-5.652;2022-10-31T05:18:08;100797.75;;;15.20
69415;BMP280;56608;43.530;-5.652;2022-10-31T05:19:10;100798.31;;;15.24
69415;BMP280;56608;43.530;-5.652;2022-10-31T05:20:13;100796.66;;;15.27
69415;BMP280;56608;43.530;-5.652;2022-10-31T05:21:15;100797.56;;;15.24
69415;BMP280;56608;43.530;-5.652;2022-10-31T05:22:16;100791.69;;;15.25
69415;BMP280;56608;43.530;-5.652;2022-10-31T05:23:17;100787.78;;;15.27
69415;BMP280;56608;43.530;-5.652;2022-10-31T05:24:19;100780.56;;;15.23
69415;BMP280;56608;43.530;-5.652;2022-10-31T05:25:25;100785.06;;;15.27
69415;BMP280;56608;43.530;-5.652;2022-10-31T05:26:27;100770.69;;;15.20
69415;BMP280;56608;43.530;-5.652;2022-10-31T05:27:28;100772.75;;;15.25
69415;BMP280;56608;43.530;-5.652;2022-10-31T05:28:30;100775.25;;;15.29
69415;BMP280;56608;43.530;-5.652;2022-10-31T05:29:31;100764.88;;;15.27
69415;BMP280;56608;43.530;-5.652;2022-10-31T05:30:36;100768.47;;;15.34
69415;BMP280;56608;43.530;-5.652;2022-10-31T05:31:37;100769.06;;;15.38
69415;BMP280;56608;43.530;-5.652;2022-10-31T05:32:44;100770.81;;;15.41
69415;BMP280;56608;43.530;-5.652;2022-10-31T05:33:45;100778.38;;;15.37
69415;BMP280;56608;43.530;-5.652;2022-10-31T05:34:47;100762.31;;;15.33
69415;BMP280;56608;43.530;-5.652;2022-10-31T05:35:48;100766.06;;;15.36
69415;BMP280;56608;43.530;-5.652;2022-10-31T05:36:52;100768.31;;;15.37
69415;BMP280;56608;43.530;-5.652;2022-10-31T05:37:53;100759.69;;;15.39
69415;BMP280;56608;43.530;-5.652;2022-10-31T05:38:55;100762.87;;;15.37
69415;BMP280;56608;43.530;-5.652;2022-10-31T05:39:56;100762.59;;;15.35
69415;BMP280;56608;43.530;-5.652;2022-10-31T05:40:57;100772.41;;;15.33
69415;BMP280;56608;43.530;-5.652;2022-10-31T05:42:01;100770.44;;;15.33
69415;BMP280;56608;43.530;-5.652;2022-10-31T05:43:02;100766.06;;;15.36
69415;BMP280;56608;43.530;-5.652;2022-10-31T05:44:04;100765.87;;;15.39
69415;BMP280;56608;43.530;-5.652;2022-10-31T05:45:04;100767.34;;;15.40
69415;BMP280;56608;43.530;-5.652;2022-10-31T05:46:06;100767.19;;;15.44
69415;BMP280;56608;43.530;-5.652;2022-10-31T05:47:10;100759.06;;;15.44
69415;BMP280;56608;43.530;-5.652;2022-10-31T05:48:13;100754.88;;;15.43
69415;BMP280;56608;43.530;-5.652;2022-10-31T05:49:14;100757.75;;;15.39
69415;BMP280;56608;43.530;-5.652;2022-10-31T05:50:16;100759.69;;;15.39
69415;BMP280;56608;43.530;-5.652;2022-10-31T05:51:17;100773.88;;;15.34
69415;BMP280;56608;43.530;-5.652;2022-10-31T05:52:19;100748.19;;;15.29
69415;BMP280;56608;43.530;-5.652;2022-10-31T05:53:20;100745.34;;;15.33
69415;BMP280;56608;43.530;-5.652;2022-10-31T05:54:22;100745.16;;;15.36
69415;BMP280;56608;43.530;-5.652;2022-10-31T05:55:23;100742.00;;;15.38
69415;BMP280;56608;43.530;-5.652;2022-10-31T05:56:26;100744.97;;;15.40
69415;BMP280;56608;43.530;-5.652;2022-10-31T05:57:31;100733.34;;;15.24
69415;BMP280;56608;43.530;-5.652;2022-10-31T05:58:32;100743.03;;;15.16
69415;BMP280;56608;43.530;-5.652;2022-10-31T05:59:34;100736.78;;;15.10
69415;BMP280;56608;43.530;-5.652;2022-10-31T06:00:34;100735.87;;;15.13
69415;BMP280;56608;43.530;-5.652;2022-10-31T06:01:36;100729.81;;;15.18
69415;BMP280;56608;43.530;-5.652;2022-10-31T06:02:37;100724.59;;;15.30
69415;BMP280;56608;43.530;-5.652;2022-10-31T06:03:41;100722.63;;;15.30
69415;BMP280;56608;43.530;-5.652;2022-10-31T06:04:42;100726.50;;;15.38
69415;BMP280;56608;43.530;-5.652;2022-10-31T06:05:44;100727.12;;;15.33
69415;BMP280;56608;43.530;-5.652;2022-10-31T06:06:44;100725.53;;;15.27
69415;BMP280;56608;43.530;-5.652;2022-10-31T06:07:46;100732.53;;;15.33
69415;BMP280;56608;43.530;-5.652;2022-10-31T06:08:49;100737.50;;;15.35
69415;BMP280;56608;43.530;-5.652;2022-10-31T06:09:51;100731.19;;;15.29
69415;BMP280;56608;43.530;-5.652;2022-10-31T06:10:52;100715.34;;;15.21
69415;BMP280;56608;43.530;-5.652;2022-10-31T06:11:54;100719.16;;;15.30
69415;BMP280;56608;43.530;-5.652;2022-10-31T06:12:56;100715.56;;;15.33
69415;BMP280;56608;43.530;-5.652;2022-10-31T06:13:57;100715.63;;;15.23
69415;BMP280;56608;43.530;-5.652;2022-10-31T06:15:00;100718.44;;;15.14
69415;BMP280;56608;43.530;-5.652;2022-10-31T06:16:02;100723.78;;;15.00
69415;BMP280;56608;43.530;-5.652;2022-10-31T06:17:02;100715.56;;;14.94
69415;BMP280;56608;43.530;-5.652;2022-10-31T06:18:05;100712.00;;;14.88
69415;BMP280;56608;43.530;-5.652;2022-10-31T06:19:08;100704.28;;;14.96
69415;BMP280;56608;43.530;-5.652;2022-10-31T06:20:10;100705.13;;;15.02
69415;BMP280;56608;43.530;-5.652;2022-10-31T06:21:12;100698.22;;;15.01
69415;BMP280;56608;43.530;-5.652;2022-10-31T06:22:13;100700.47;;;15.02
69415;BMP280;56608;43.530;-5.652;2022-10-31T06:23:15;100705.22;;;14.93
69415;BMP280;56608;43.530;-5.652;2022-10-31T06:24:16;100685.91;;;14.85